createdAt,value
2023-01-01T00:01:40.455Z,60.14
2023-01-01T00:04:10.886Z,59.13
2023-01-01T00:06:37.674Z,58.53
2023-01-01T00:09:22.872Z,58.79
2023-01-01T00:11:49.378Z,58.12
2023-01-01T00:14:15.808Z,58.02
2023-01-01T00:16:42.288Z,57.44
2023-01-01T00:19:08.767Z,57.04
2023-01-01T00:21:35.342Z,57.81
2023-01-01T00:24:01.968Z,57.29
2023-01-01T00:26:34.615Z,56.99
2023-01-01T00:29:02.407Z,57.29
2023-01-01T00:31:29.050Z,55.85
2023-01-01T00:33:56.457Z,55.80
2023-01-01T00:36:25.182Z,55.59
2023-01-01T00:38:52.074Z,55.74
2023-01-01T00:41:19.027Z,55.92
2023-01-01T00:43:45.825Z,55.47
2023-01-01T00:46:13.153Z,54.75
2023-01-01T00:48:40.014Z,55.67
2023-01-01T00:51:07.304Z,55.67
2023-01-01T00:53:34.148Z,55.94
2023-01-01T00:56:00.599Z,56.06
2023-01-01T00:58:27.421Z,55.81
2023-01-01T01:00:54.867Z,55.18
2023-01-01T01:03:31.064Z,55.36
2023-01-01T01:06:17.397Z,55.37
2023-01-01T01:08:46.779Z,55.52
2023-01-01T01:11:16.576Z,55.23
2023-01-01T01:13:45.196Z,54.24
2023-01-01T01:16:18.238Z,54.72
2023-01-01T01:18:44.927Z,55.71
2023-01-01T01:21:15.805Z,54.40
2023-01-01T01:23:42.633Z,54.95
2023-01-01T01:26:13.575Z,54.55
2023-01-01T01:28:47.101Z,55.34
2023-01-01T01:31:17.118Z,55.20
2023-01-01T01:33:44.246Z,54.51
2023-01-01T01:36:12.229Z,54.83
2023-01-01T01:38:41.085Z,55.77
2023-01-01T01:41:08.181Z,54.72
2023-01-01T01:43:34.747Z,54.85
2023-01-01T01:46:06.387Z,53.93
2023-01-01T01:48:52.352Z,54.63
2023-01-01T01:51:26.859Z,53.99
2023-01-01T01:53:58.823Z,53.89
2023-01-01T01:56:49.783Z,53.94
2023-01-01T01:59:18.738Z,54.66
2023-01-01T02:01:45.221Z,53.89
2023-01-01T02:04:12.221Z,53.49
2023-01-01T02:06:39.857Z,53.79
2023-01-01T02:09:08.548Z,54.09
2023-01-01T02:11:35.423Z,54.11
2023-01-01T02:14:04.119Z,54.30
2023-01-01T02:16:43.820Z,54.76
2023-01-01T02:19:19.424Z,54.03
2023-01-01T02:21:59.652Z,54.51
2023-01-01T02:24:55.997Z,54.60
2023-01-01T02:27:54.293Z,54.42
2023-01-01T02:30:20.968Z,53.21
2023-01-01T02:32:55.562Z,53.40
2023-01-01T02:35:46.897Z,54.60
2023-01-01T02:38:33.875Z,54.81
2023-01-01T02:41:11.437Z,54.47
2023-01-01T02:43:38.937Z,54.46
2023-01-01T02:46:07.896Z,54.79
2023-01-01T02:48:41.768Z,54.39
2023-01-01T02:51:14.396Z,54.33
2023-01-01T02:53:58.608Z,54.51
2023-01-01T02:56:37.511Z,55.78
2023-01-01T02:59:45.101Z,55.68
2023-01-01T03:02:16.923Z,54.21
2023-01-01T03:04:57.551Z,55.09
2023-01-01T03:07:27.993Z,54.94
2023-01-01T03:10:02.516Z,54.56
2023-01-01T03:12:43.110Z,54.19
2023-01-01T03:15:33.707Z,54.33
2023-01-01T03:18:15.503Z,54.32
2023-01-01T03:20:48.095Z,54.77
2023-01-01T03:23:20.377Z,54.44
2023-01-01T03:25:53.747Z,54.96
2023-01-01T03:28:36.309Z,54.84
2023-01-01T03:31:03.869Z,54.78
2023-01-01T03:33:39.023Z,54.82
2023-01-01T03:36:19.772Z,55.07
2023-01-01T03:38:55.686Z,56.17
2023-01-01T03:41:51.328Z,55.39
2023-01-01T03:44:24.272Z,55.37
2023-01-01T03:46:51.251Z,55.47
2023-01-01T03:49:18.597Z,55.41
2023-01-01T03:52:23.360Z,55.45
2023-01-01T03:55:04.918Z,55.26
2023-01-01T03:57:55.640Z,55.79
2023-01-01T04:00:28.039Z,55.76
2023-01-01T04:03:02.951Z,56.23
2023-01-01T04:05:32.175Z,55.89
2023-01-01T04:08:02.048Z,56.66
2023-01-01T04:10:31.257Z,55.94
2023-01-01T04:12:57.912Z,55.12
2023-01-01T04:15:27.223Z,55.43
2023-01-01T04:17:54.297Z,55.27
2023-01-01T04:20:21.475Z,56.59
2023-01-01T04:22:48.203Z,56.51
2023-01-01T04:25:15.391Z,56.44
2023-01-01T04:27:41.834Z,56.07
2023-01-01T04:30:11.314Z,56.46
2023-01-01T04:32:38.415Z,56.76
2023-01-01T04:35:06.000Z,57.15
2023-01-01T04:37:32.505Z,56.92
2023-01-01T04:39:58.928Z,57.75
2023-01-01T04:42:25.357Z,57.37
2023-01-01T04:44:51.757Z,57.17
2023-01-01T04:47:18.375Z,56.63
2023-01-01T04:49:44.847Z,56.84
2023-01-01T04:52:11.243Z,57.04
2023-01-01T04:54:38.643Z,56.95
2023-01-01T04:57:05.660Z,57.15
2023-01-01T04:59:32.111Z,57.68
2023-01-01T05:01:58.883Z,57.40
2023-01-01T05:04:25.412Z,57.15
2023-01-01T05:06:52.029Z,57.32
2023-01-01T05:09:18.615Z,57.15
2023-01-01T05:11:45.128Z,57.03
2023-01-01T05:14:11.750Z,56.99
2023-01-01T05:16:39.513Z,57.19
2023-01-01T05:19:07.255Z,56.84
2023-01-01T05:21:36.566Z,57.00
2023-01-01T05:24:05.658Z,56.82
2023-01-01T05:26:35.477Z,57.51
2023-01-01T05:29:02.508Z,57.51
2023-01-01T05:31:31.770Z,57.58
2023-01-01T05:36:27.514Z,57.88
2023-01-01T05:38:54.460Z,57.80
2023-01-01T05:41:22.277Z,57.84
2023-01-01T05:43:49.458Z,58.43
2023-01-01T05:46:21.848Z,58.49
2023-01-01T05:48:49.112Z,58.63
2023-01-01T05:51:20.096Z,58.93
2023-01-01T05:53:46.911Z,58.99
2023-01-01T05:56:14.524Z,58.76
2023-01-01T05:58:41.600Z,59.56
2023-01-01T06:01:14.593Z,58.74
2023-01-01T06:03:42.604Z,59.99
2023-01-01T06:06:11.992Z,59.23
2023-01-01T06:08:39.040Z,59.43
2023-01-01T06:11:07.680Z,59.08
2023-01-01T06:13:34.840Z,59.15
2023-01-01T06:16:02.150Z,59.55
2023-01-01T06:18:34.866Z,59.58
2023-01-01T06:21:10.377Z,59.46
2023-01-01T06:23:37.388Z,59.74
2023-01-01T06:26:21.773Z,59.77
2023-01-01T06:28:49.345Z,59.46
2023-01-01T06:31:20.002Z,59.14
2023-01-01T06:33:47.381Z,59.02
2023-01-01T06:36:16.162Z,59.12
2023-01-01T06:38:45.154Z,59.12
2023-01-01T06:41:14.386Z,58.30
2023-01-01T06:43:40.861Z,57.85
2023-01-01T06:46:13.060Z,57.54
2023-01-01T06:48:39.562Z,57.96
2023-01-01T06:51:08.704Z,57.66
2023-01-01T06:53:35.858Z,56.97
2023-01-01T06:56:02.753Z,56.99
2023-01-01T06:58:29.764Z,56.87
2023-01-01T07:01:13.789Z,57.42
2023-01-01T07:03:41.506Z,56.21
2023-01-01T07:06:08.906Z,56.66
2023-01-01T07:08:35.882Z,56.14
2023-01-01T07:11:02.745Z,56.65
2023-01-01T07:13:30.276Z,56.56
2023-01-01T07:15:57.168Z,56.39
2023-01-01T07:18:24.852Z,55.99
2023-01-01T07:20:55.571Z,55.99
2023-01-01T07:23:22.414Z,56.74
2023-01-01T07:25:50.274Z,57.14
2023-01-01T07:28:20.192Z,56.96
2023-01-01T07:30:46.857Z,57.54
2023-01-01T07:33:18.005Z,56.14
2023-01-01T07:35:47.847Z,56.84
2023-01-01T07:38:15.362Z,56.19
2023-01-01T07:40:42.141Z,56.88
2023-01-01T07:43:12.597Z,56.26
2023-01-01T07:45:42.315Z,55.84
2023-01-01T07:48:14.622Z,56.35
2023-01-01T07:50:41.295Z,56.16
2023-01-01T07:53:10.619Z,56.89
2023-01-01T07:55:37.750Z,56.49
2023-01-01T07:58:04.780Z,56.74
2023-01-01T08:00:31.191Z,56.54
2023-01-01T08:02:58.665Z,56.71
2023-01-01T08:05:27.097Z,56.83
2023-01-01T08:07:56.805Z,56.89
2023-01-01T08:10:23.471Z,56.93
2023-01-01T08:12:50.059Z,56.56
2023-01-01T08:15:16.858Z,56.94
2023-01-01T08:17:46.817Z,56.94
2023-01-01T08:20:14.538Z,57.21
2023-01-01T08:22:40.955Z,56.89
2023-01-01T08:25:07.871Z,56.49
2023-01-01T08:27:34.820Z,56.59
2023-01-01T08:30:01.318Z,56.31
2023-01-01T08:32:27.831Z,56.27
2023-01-01T08:34:54.236Z,56.58
2023-01-01T08:37:22.202Z,56.56
2023-01-01T08:39:52.471Z,56.09
2023-01-01T08:42:21.957Z,56.48
2023-01-01T08:44:48.527Z,56.07
2023-01-01T08:47:20.057Z,55.67
2023-01-01T08:49:46.616Z,55.90
2023-01-01T08:52:13.871Z,55.01
2023-01-01T08:54:40.291Z,55.76
2023-01-01T08:57:07.218Z,55.74
2023-01-01T08:59:33.795Z,56.21
2023-01-01T09:02:00.463Z,56.14
2023-01-01T09:04:29.975Z,56.39
2023-01-01T09:06:56.401Z,56.09
2023-01-01T09:09:27.396Z,55.81
2023-01-01T09:12:05.896Z,55.67
2023-01-01T09:14:34.014Z,55.65
2023-01-01T09:17:01.283Z,55.84
2023-01-01T09:19:28.255Z,54.86
2023-01-01T09:21:55.164Z,55.39
2023-01-01T09:24:21.809Z,55.54
2023-01-01T09:26:48.334Z,55.57
2023-01-01T09:29:22.009Z,55.49
2023-01-01T09:31:49.240Z,54.79
2023-01-01T09:34:20.252Z,55.26
2023-01-01T09:36:46.827Z,55.20
2023-01-01T09:39:15.486Z,54.74
2023-01-01T09:42:00.713Z,55.84
2023-01-01T09:44:49.891Z,55.70
2023-01-01T09:47:25.508Z,55.89
2023-01-01T09:49:54.610Z,55.55
2023-01-01T09:52:21.484Z,55.10
2023-01-01T09:54:55.578Z,55.76
2023-01-01T09:57:28.497Z,55.34
2023-01-01T09:59:56.186Z,56.13
2023-01-01T10:02:53.994Z,55.11
2023-01-01T10:05:49.044Z,54.45
2023-01-01T10:08:27.651Z,55.20
2023-01-01T10:11:08.434Z,55.90
2023-01-01T10:13:45.954Z,55.26
2023-01-01T10:16:24.698Z,55.59
2023-01-01T10:18:56.215Z,54.12
2023-01-01T10:21:30.159Z,54.38
2023-01-01T10:24:02.059Z,54.74
2023-01-01T10:26:30.221Z,53.79
2023-01-01T10:29:09.720Z,53.44
2023-01-01T10:31:41.307Z,53.44
2023-01-01T10:34:34.402Z,52.64
2023-01-01T10:37:02.438Z,52.06
2023-01-01T10:39:29.220Z,52.34
2023-01-01T10:41:57.989Z,51.74
2023-01-01T10:44:30.424Z,51.92
2023-01-01T10:46:59.301Z,51.71
2023-01-01T10:49:25.775Z,52.39
2023-01-01T10:51:54.844Z,52.51
2023-01-01T10:54:38.107Z,52.64
2023-01-01T10:57:17.916Z,52.41
2023-01-01T10:59:51.728Z,53.01
2023-01-01T11:02:26.652Z,52.86
2023-01-01T11:05:19.245Z,52.66
2023-01-01T11:07:48.134Z,53.51
2023-01-01T11:10:21.249Z,54.00
2023-01-01T11:13:05.705Z,53.09
2023-01-01T11:15:38.231Z,53.74
2023-01-01T11:18:10.704Z,53.63
2023-01-01T11:20:37.386Z,54.30
2023-01-01T11:23:27.204Z,53.36
2023-01-01T11:26:11.874Z,54.40
2023-01-01T11:28:40.018Z,53.95
2023-01-01T11:31:14.444Z,53.69
2023-01-01T11:33:53.067Z,54.14
2023-01-01T11:36:27.961Z,53.69
2023-01-01T11:39:27.209Z,53.74
2023-01-01T11:41:56.398Z,53.91
2023-01-01T11:44:27.381Z,54.00
2023-01-01T11:46:54.073Z,54.32
2023-01-01T11:49:24.864Z,54.74
2023-01-01T11:51:51.346Z,54.81
2023-01-01T11:54:36.171Z,54.49
2023-01-01T11:57:21.918Z,55.23
2023-01-01T12:00:03.905Z,54.82
2023-01-01T12:02:38.534Z,54.83
2023-01-01T12:05:18.871Z,55.63
2023-01-01T12:07:46.334Z,54.56
2023-01-01T12:10:30.207Z,54.76
2023-01-01T12:13:23.330Z,54.41
2023-01-01T12:16:07.403Z,54.54
2023-01-01T12:18:47.489Z,54.82
2023-01-01T12:21:26.181Z,55.15
2023-01-01T12:23:52.688Z,54.33
2023-01-01T12:26:29.621Z,54.44
2023-01-01T12:29:21.081Z,54.42
2023-01-01T12:31:57.730Z,54.67
2023-01-01T12:35:03.568Z,55.49
2023-01-01T12:37:41.959Z,55.09
2023-01-01T12:40:35.123Z,54.80
2023-01-01T12:43:05.112Z,54.80
2023-01-01T12:45:52.718Z,54.63
2023-01-01T12:48:43.289Z,54.83
2023-01-01T12:51:22.507Z,55.03
2023-01-01T12:53:54.511Z,55.68
2023-01-01T12:56:41.911Z,55.49
2023-01-01T12:59:20.452Z,54.14
2023-01-01T13:01:48.846Z,55.76
2023-01-01T13:04:20.297Z,54.90
2023-01-01T13:07:03.782Z,55.51
2023-01-01T13:09:35.677Z,54.97
2023-01-01T13:12:08.216Z,55.34
2023-01-01T13:14:46.330Z,55.59
2023-01-01T13:17:20.339Z,54.48
2023-01-01T13:19:47.974Z,55.28
2023-01-01T13:22:26.396Z,55.11
2023-01-01T13:25:11.591Z,55.51
2023-01-01T13:28:05.423Z,55.92
2023-01-01T13:30:43.935Z,56.03
2023-01-01T13:33:33.154Z,55.87
2023-01-01T13:36:08.761Z,55.94
2023-01-01T13:38:53.845Z,56.48
2023-01-01T13:41:26.436Z,55.86
2023-01-01T13:44:10.582Z,55.94
2023-01-01T13:46:52.162Z,56.03
2023-01-01T13:50:04.783Z,56.62
2023-01-01T13:53:05.295Z,56.34
2023-01-01T13:56:13.344Z,56.96
2023-01-01T13:58:53.272Z,57.71
2023-01-01T14:02:00.145Z,56.73
2023-01-01T14:04:40.717Z,57.61
2023-01-01T14:07:50.556Z,57.60
2023-01-01T14:10:28.286Z,57.10
2023-01-01T14:13:02.054Z,57.44
2023-01-01T14:15:33.387Z,57.64
2023-01-01T14:18:02.513Z,57.86
2023-01-01T14:20:41.387Z,57.98
2023-01-01T14:23:15.220Z,58.57
2023-01-01T14:25:43.694Z,58.96
2023-01-01T14:28:31.614Z,59.62
2023-01-01T14:31:04.258Z,59.45
2023-01-01T14:33:35.430Z,58.99
2023-01-01T14:36:04.379Z,59.32
2023-01-01T14:38:35.881Z,59.89
2023-01-01T14:41:18.131Z,59.72
2023-01-01T14:43:47.075Z,59.87
2023-01-01T14:46:20.405Z,59.92
2023-01-01T14:48:50.547Z,60.34
2023-01-01T14:51:21.015Z,60.46
2023-01-01T14:53:49.016Z,60.47
2023-01-01T14:56:24.250Z,61.01
2023-01-01T14:58:50.822Z,60.97
2023-01-01T15:01:27.458Z,60.49
2023-01-01T15:04:04.316Z,60.54
2023-01-01T15:06:32.035Z,61.04
2023-01-01T15:08:58.508Z,60.85
2023-01-01T15:11:29.124Z,60.67
2023-01-01T15:13:59.500Z,61.54
2023-01-01T15:16:26.312Z,61.95
2023-01-01T15:18:53.460Z,62.41
2023-01-01T15:21:32.015Z,62.27
2023-01-01T15:24:10.684Z,62.86
2023-01-01T15:26:40.139Z,63.34
2023-01-01T15:29:15.743Z,63.20
2023-01-01T15:31:46.567Z,63.48
2023-01-01T15:34:27.356Z,63.67
2023-01-01T15:36:56.494Z,64.19
2023-01-01T15:39:23.068Z,64.20
2023-01-01T15:41:52.486Z,64.28
2023-01-01T15:44:25.630Z,64.57
2023-01-01T15:46:52.700Z,64.79
2023-01-01T15:49:29.930Z,64.82
2023-01-01T15:52:03.983Z,65.02
2023-01-01T15:54:33.559Z,65.21
2023-01-01T15:57:00.025Z,64.88
2023-01-01T15:59:30.656Z,65.27
2023-01-01T16:02:17.630Z,65.56
2023-01-01T16:04:49.567Z,65.87
2023-01-01T16:07:20.732Z,65.95
2023-01-01T16:09:51.918Z,65.72
2023-01-01T16:12:21.752Z,65.86
2023-01-01T16:14:48.385Z,66.24
2023-01-01T16:17:20.699Z,66.29
2023-01-01T16:19:48.270Z,66.02
2023-01-01T16:22:16.423Z,65.89
2023-01-01T16:24:45.683Z,66.22
2023-01-01T16:27:12.124Z,66.27
2023-01-01T16:29:43.192Z,66.16
2023-01-01T16:32:18.949Z,66.63
2023-01-01T16:34:45.302Z,66.91
2023-01-01T16:37:11.906Z,66.88
2023-01-01T16:39:38.318Z,66.79
2023-01-01T16:42:04.751Z,66.59
2023-01-01T16:44:31.140Z,66.91
2023-01-01T16:46:57.582Z,66.84
2023-01-01T16:49:23.939Z,67.54
2023-01-01T16:51:50.617Z,67.34
2023-01-01T16:54:17.093Z,67.74
2023-01-01T16:56:43.483Z,68.12
2023-01-01T16:59:09.885Z,67.72
2023-01-01T17:01:36.637Z,68.31
2023-01-01T17:04:03.270Z,68.73
2023-01-01T17:06:29.657Z,68.74
2023-01-01T17:08:56.037Z,68.89
2023-01-01T17:11:24.796Z,69.12
2023-01-01T17:13:51.206Z,69.03
2023-01-01T17:16:25.955Z,69.25
2023-01-01T17:19:14.296Z,69.33
2023-01-01T17:21:40.994Z,69.47
2023-01-01T17:24:07.526Z,69.42
2023-01-01T17:26:33.973Z,69.70
2023-01-01T17:29:01.223Z,69.49
2023-01-01T17:31:29.007Z,69.51
2023-01-01T17:33:56.087Z,69.59
2023-01-01T17:36:22.924Z,69.44
2023-01-01T17:38:49.484Z,69.43
2023-01-01T17:41:17.302Z,69.84
2023-01-01T17:43:45.905Z,69.53
2023-01-01T17:46:28.489Z,69.64
2023-01-01T17:48:55.547Z,69.59
2023-01-01T17:51:22.230Z,69.92
2023-01-01T17:53:49.529Z,70.06
2023-01-01T17:56:17.825Z,70.34
2023-01-01T17:58:46.145Z,70.11
2023-01-01T18:01:12.585Z,70.10
2023-01-01T18:03:40.964Z,70.32
2023-01-01T18:06:08.073Z,71.04
2023-01-01T18:08:34.479Z,71.06
2023-01-01T18:11:00.916Z,71.09
2023-01-01T18:13:27.828Z,70.84
2023-01-01T18:15:54.402Z,71.13
2023-01-01T18:18:20.944Z,71.34
2023-01-01T18:20:47.370Z,71.67
2023-01-01T18:23:14.023Z,71.75
2023-01-01T18:25:40.482Z,72.10
2023-01-01T18:28:10.223Z,71.82
2023-01-01T18:30:36.821Z,71.50
2023-01-01T18:33:03.343Z,71.33
2023-01-01T18:35:29.743Z,71.22
2023-01-01T18:37:56.986Z,71.19
2023-01-01T18:40:23.925Z,71.39
2023-01-01T18:42:59.829Z,71.27
2023-01-01T18:45:26.323Z,71.57
2023-01-01T18:47:52.895Z,72.07
2023-01-01T18:50:29.137Z,71.92
2023-01-01T18:53:24.216Z,71.93
2023-01-01T18:55:52.249Z,71.60
2023-01-01T18:58:21.598Z,71.93
2023-01-01T19:00:49.046Z,72.24
2023-01-01T19:03:18.788Z,72.07
2023-01-01T19:05:47.561Z,71.64
2023-01-01T19:08:17.313Z,71.70
2023-01-01T19:10:43.781Z,71.67
2023-01-01T19:13:33.717Z,71.47
2023-01-01T19:16:01.748Z,71.48
2023-01-01T19:18:33.160Z,71.46
2023-01-01T19:21:14.749Z,71.69
2023-01-01T19:23:51.265Z,71.40
2023-01-01T19:26:35.908Z,71.09
2023-01-01T19:29:13.073Z,71.42
2023-01-01T19:31:39.525Z,71.45
2023-01-01T19:34:06.053Z,71.80
2023-01-01T19:36:32.663Z,71.89
2023-01-01T19:38:59.089Z,72.12
2023-01-01T19:41:25.783Z,72.06
2023-01-01T19:43:52.202Z,72.17
2023-01-01T19:46:18.626Z,71.46
2023-01-01T19:48:45.053Z,71.52
2023-01-01T19:51:11.476Z,71.72
2023-01-01T19:53:37.850Z,71.57
2023-01-01T19:56:04.355Z,71.82
2023-01-01T19:58:30.819Z,71.51
2023-01-01T20:00:57.433Z,71.49
2023-01-01T20:03:52.701Z,71.95
2023-01-01T20:06:10.788Z,71.72
2023-01-01T20:08:40.133Z,72.02
2023-01-01T20:11:07.269Z,70.89
2023-01-01T20:13:33.906Z,71.55
2023-01-01T20:16:02.003Z,71.64
2023-01-01T20:18:29.376Z,71.74
2023-01-01T20:21:14.610Z,72.06
2023-01-01T20:23:41.218Z,72.54
2023-01-01T20:26:08.207Z,72.45
2023-01-01T20:28:53.134Z,71.73
2023-01-01T20:31:19.585Z,72.04
2023-01-01T20:33:45.987Z,72.10
2023-01-01T20:36:30.986Z,72.13
2023-01-01T20:38:57.956Z,72.74
2023-01-01T20:41:24.375Z,72.33
2023-01-01T20:44:01.415Z,72.96
2023-01-01T20:46:29.983Z,72.99
2023-01-01T20:48:57.744Z,73.03
2023-01-01T20:51:24.632Z,73.27
2023-01-01T20:53:51.091Z,73.35
2023-01-01T20:56:17.548Z,73.67
2023-01-01T20:58:48.657Z,73.67
2023-01-01T21:01:18.320Z,74.22
2023-01-01T21:03:44.883Z,73.84
2023-01-01T21:06:11.410Z,73.97
2023-01-01T21:08:37.838Z,74.07
2023-01-01T21:11:04.423Z,74.03
2023-01-01T21:13:31.041Z,74.02
2023-01-01T21:16:06.687Z,73.55
2023-01-01T21:18:33.246Z,73.45
2023-01-01T21:21:00.908Z,73.14
2023-01-01T21:23:29.250Z,72.98
2023-01-01T21:25:56.274Z,73.46
2023-01-01T21:28:32.551Z,73.04
2023-01-01T21:31:00.669Z,73.12
2023-01-01T21:33:29.946Z,72.57
2023-01-01T21:36:00.265Z,72.75
2023-01-01T21:38:28.135Z,72.11
2023-01-01T21:40:59.555Z,72.79
2023-01-01T21:43:29.764Z,73.01
2023-01-01T21:46:16.181Z,72.99
2023-01-01T21:49:02.083Z,72.97
2023-01-01T21:51:34.959Z,72.64
2023-01-01T21:54:10.741Z,72.75
2023-01-01T21:56:42.813Z,72.67
2023-01-01T21:59:27.601Z,72.75
2023-01-01T22:01:54.094Z,72.66
2023-01-01T22:04:23.943Z,72.99
2023-01-01T22:06:57.882Z,72.78
2023-01-01T22:09:34.666Z,72.76
2023-01-01T22:12:13.204Z,72.03
2023-01-01T22:14:45.919Z,72.39
2023-01-01T22:17:14.938Z,71.97
2023-01-01T22:19:43.946Z,72.39
2023-01-01T22:22:13.751Z,72.59
2023-01-01T22:24:40.381Z,72.59
2023-01-01T22:27:16.029Z,72.82
2023-01-01T22:29:44.175Z,72.76
2023-01-01T22:32:29.827Z,72.59
2023-01-01T22:35:07.407Z,72.42
2023-01-01T22:37:39.457Z,73.34
2023-01-01T22:40:31.303Z,74.29
2023-01-01T22:43:04.783Z,75.23
2023-01-01T22:45:31.783Z,76.66
2023-01-01T22:48:02.186Z,76.85
2023-01-01T22:50:29.954Z,77.27
2023-01-01T22:52:57.197Z,77.59
2023-01-01T22:55:23.884Z,77.89
2023-01-01T22:57:50.293Z,78.00
2023-01-01T23:00:18.557Z,78.07
2023-01-01T23:02:45.711Z,78.14
2023-01-01T23:05:12.638Z,78.57
2023-01-01T23:07:42.092Z,78.89
2023-01-01T23:10:12.103Z,78.69
2023-01-01T23:12:38.570Z,78.58
2023-01-01T23:15:24.151Z,78.68
2023-01-01T23:17:50.565Z,79.01
2023-01-01T23:20:17.488Z,79.29
2023-01-01T23:22:49.519Z,79.24
2023-01-01T23:25:17.917Z,79.49
2023-01-01T23:27:46.307Z,79.57
2023-01-01T23:30:13.809Z,79.53
2023-01-01T23:32:41.925Z,79.78
2023-01-01T23:35:09.259Z,79.58
2023-01-01T23:37:35.819Z,79.59
2023-01-01T23:40:02.207Z,79.70
2023-01-01T23:42:28.567Z,79.23
2023-01-01T23:44:54.933Z,79.31
2023-01-01T23:47:21.459Z,79.18
2023-01-01T23:49:47.897Z,79.10
2023-01-01T23:52:14.282Z,78.94
2023-01-01T23:54:40.704Z,79.15
2023-01-01T23:57:07.073Z,78.97
2023-01-01T23:59:33.487Z,79.07
